Terminal Aerodrome Forecast
Issued by NWS

Home | Current Version | Previous Version | Text Only | Print | Product List | Glossary On
Versions: 1 2 3 4 5 6 7 8 9 10 11 12 13 14 15 16 17 18 19 20
622
FTUS44 KLIX 251734
TAFMCB
TAF
KMCB 251734Z 2518/2618 20011KT P6SM BKN100
     FM260600 19005KT 5SM BR BKN025
     FM261200 21004KT 3/4SM BR OVC003
     FM261500 21005KT P6SM BKN015
     FM261700 21006KT P6SM SCT060=

USA.gov is the U.S. government's official web portal to all federal, state and local government web resources and services.